East Smethport, Pennsylvania
Current Conditions -  °F | °C
As of 6:53 PM on Friday 31 Oct 2014 (Local Time) from KBFD Reporting Station
Light Rain Light Rain  
Wind Chill: 33°   Ceiling: 900
Heat Index: 38°   Visibility: 7mi
Dew Point: 35°   Wind: 7mph
Humidity: 89%   Direction: 110°ESE
Pressure: 29.89"   Gusts: NA
Location:  41.81°N, 78.42°W
Report Text: KBFD 312253Z AUTO 11006KT 7SM -RA BKN009 OVC029 03/02 A2989 RMK AO2 SLP133 P0002 T00330017
Loading
Personal Weather Stations






























Interactive Weather Map New forecast layout! Learn more

10-Day Weather Forecast

Advertisements
Track Severe Weather on mobile